createdAt,value
2022-09-17T00:00:32.380Z,2.45
2022-09-17T00:04:34.351Z,2.70
2022-09-17T00:08:39.874Z,2.65
2022-09-17T00:12:41.672Z,4.93
2022-09-17T00:16:46.683Z,5.45
2022-09-17T00:20:48.316Z,2.85
2022-09-17T00:24:49.897Z,3.58
2022-09-17T00:28:58.025Z,5.00
2022-09-17T00:32:59.964Z,2.80
2022-09-17T00:37:01.671Z,4.13
2022-09-17T00:41:04.396Z,3.50
2022-09-17T00:45:06.522Z,5.07
2022-09-17T00:49:14.592Z,3.00
2022-09-17T00:53:19.838Z,2.53
2022-09-17T00:57:21.551Z,3.17
2022-09-17T01:01:23.478Z,2.00
2022-09-17T01:05:38.876Z,6.30
2022-09-17T01:10:05.975Z,2.65
2022-09-17T01:14:23.199Z,5.50
2022-09-17T01:18:24.652Z,1.83
2022-09-17T01:22:38.401Z,1.98
2022-09-17T01:26:54.891Z,3.28
2022-09-17T01:31:34.525Z,3.25
2022-09-17T01:36:04.854Z,3.53
2022-09-17T01:40:25.023Z,6.63
2022-09-17T01:44:37.151Z,5.40
2022-09-17T01:48:46.363Z,5.63
2022-09-17T01:52:50.521Z,7.60
2022-09-17T01:56:58.409Z,5.28
2022-09-17T02:01:04.022Z,5.88
2022-09-17T02:05:11.300Z,3.78
2022-09-17T02:09:22.629Z,6.10
2022-09-17T02:13:32.852Z,3.50
2022-09-17T02:17:44.506Z,4.50
2022-09-17T02:21:57.879Z,5.40
2022-09-17T02:26:15.467Z,4.53
2022-09-17T02:30:17.319Z,3.45
2022-09-17T02:34:20.314Z,8.40
2022-09-17T02:42:45.517Z,3.85
2022-09-17T02:47:08.340Z,5.50
2022-09-17T02:51:51.663Z,4.72
2022-09-17T02:56:25.672Z,5.18
2022-09-17T03:00:28.484Z,6.75
2022-09-17T03:04:32.123Z,5.72
2022-09-17T03:08:38.163Z,7.07
2022-09-17T03:12:40.818Z,3.42
2022-09-17T03:16:42.468Z,4.30
2022-09-17T03:20:44.007Z,5.20
2022-09-17T03:24:45.704Z,3.83
2022-09-17T03:28:47.503Z,5.93
2022-09-17T03:32:49.023Z,3.58
2022-09-17T03:36:50.597Z,4.75
2022-09-17T03:41:07.229Z,10.50
2022-09-17T03:45:09.662Z,5.18
2022-09-17T03:49:11.444Z,3.28
2022-09-17T03:53:13.102Z,4.30
2022-09-17T03:57:14.723Z,6.55
2022-09-17T04:01:16.399Z,6.15
2022-09-17T04:05:18.028Z,5.75
2022-09-17T04:09:20.300Z,11.40
2022-09-17T04:13:21.951Z,6.05
2022-09-17T04:17:23.505Z,8.75
2022-09-17T04:21:25.105Z,6.97
2022-09-17T04:25:26.636Z,5.97
2022-09-17T04:29:28.632Z,3.80
2022-09-17T04:33:30.197Z,7.05
2022-09-17T04:37:31.726Z,6.70
2022-09-17T04:41:33.301Z,8.70
2022-09-17T04:45:34.918Z,8.32
2022-09-17T04:49:36.468Z,10.35
2022-09-17T04:53:38.558Z,3.38
2022-09-17T04:57:45.457Z,9.15
2022-09-17T05:01:47.026Z,6.30
2022-09-17T05:05:48.641Z,6.78
2022-09-17T05:09:50.279Z,11.05
2022-09-17T05:13:51.967Z,12.23
2022-09-17T05:17:53.918Z,6.63
2022-09-17T05:21:55.512Z,6.47
2022-09-17T05:26:01.012Z,6.03
2022-09-17T05:30:02.926Z,5.00
2022-09-17T05:34:05.300Z,8.98
2022-09-17T05:38:07.834Z,12.60
2022-09-17T05:42:09.488Z,4.45
2022-09-17T05:46:11.318Z,10.95
2022-09-17T05:50:13.004Z,13.50
2022-09-17T05:54:14.600Z,12.45
2022-09-17T05:58:18.760Z,9.25
2022-09-17T06:02:20.402Z,5.13
2022-09-17T06:06:22.133Z,7.28
2022-09-17T06:10:23.726Z,8.52
2022-09-17T06:14:25.348Z,7.57
2022-09-17T06:18:28.921Z,6.63
2022-09-17T06:22:31.420Z,5.38
2022-09-17T06:26:33.175Z,9.57
2022-09-17T06:30:40.132Z,6.60
2022-09-17T06:34:41.873Z,9.57
2022-09-17T06:38:44.087Z,10.50
2022-09-17T06:42:45.620Z,7.53
2022-09-17T06:46:50.093Z,8.70
2022-09-17T06:50:54.367Z,4.93
2022-09-17T06:54:56.548Z,5.68
2022-09-17T06:58:58.317Z,6.83
2022-09-17T07:03:01.487Z,5.63
2022-09-17T07:11:08.157Z,6.38
2022-09-17T07:15:11.414Z,7.07
2022-09-17T07:19:14.926Z,8.40
2022-09-17T07:23:16.641Z,6.57
2022-09-17T07:27:18.399Z,8.48
2022-09-17T07:31:20.026Z,7.28
2022-09-17T07:35:21.638Z,10.07
2022-09-17T07:39:23.212Z,6.53
2022-09-17T07:43:29.723Z,8.98
2022-09-17T07:47:31.300Z,7.53
2022-09-17T07:51:32.901Z,10.50
2022-09-17T07:55:34.695Z,11.15
2022-09-17T07:59:36.811Z,7.80
2022-09-17T08:03:40.214Z,11.23
2022-09-17T08:07:42.840Z,9.93
2022-09-17T08:11:55.660Z,11.40
2022-09-17T08:16:01.971Z,10.20
2022-09-17T08:20:03.965Z,12.30
2022-09-17T08:24:05.737Z,8.27
2022-09-17T08:28:07.385Z,13.63
2022-09-17T08:32:08.944Z,9.02
2022-09-17T08:36:12.880Z,11.52
2022-09-17T08:40:21.018Z,9.30
2022-09-17T08:44:47.270Z,11.40
2022-09-17T08:48:56.799Z,10.80
2022-09-17T08:53:18.690Z,12.00
2022-09-17T08:57:38.399Z,9.05
2022-09-17T09:01:51.818Z,9.48
2022-09-17T09:05:53.728Z,11.93
2022-09-17T09:10:15.679Z,7.57
2022-09-17T09:14:26.394Z,11.07
2022-09-17T09:18:33.992Z,10.55
2022-09-17T09:22:58.052Z,8.65
2022-09-17T09:27:23.623Z,6.65
2022-09-17T09:31:48.804Z,6.57
2022-09-17T09:35:50.491Z,10.25
2022-09-17T09:39:54.257Z,8.68
2022-09-17T09:44:10.511Z,7.15
2022-09-17T09:48:30.282Z,8.27
2022-09-17T09:52:51.588Z,6.78
2022-09-17T09:56:58.483Z,9.40
2022-09-17T10:01:00.081Z,6.20
2022-09-17T10:05:11.868Z,10.10
2022-09-17T10:09:16.530Z,4.50
2022-09-17T10:13:20.616Z,5.18
2022-09-17T10:17:24.417Z,6.55
2022-09-17T10:21:33.498Z,11.55
2022-09-17T10:25:35.513Z,13.25
2022-09-17T10:29:37.139Z,6.32
2022-09-17T10:33:51.412Z,12.68
2022-09-17T10:37:53.990Z,10.27
2022-09-17T10:42:06.540Z,9.40
2022-09-17T10:46:27.227Z,13.82
2022-09-17T10:50:31.963Z,9.05
2022-09-17T10:54:48.974Z,8.02
2022-09-17T10:59:03.544Z,14.30
2022-09-17T11:03:24.425Z,12.35
2022-09-17T11:07:34.209Z,7.82
2022-09-17T11:11:50.165Z,12.32
2022-09-17T11:16:09.011Z,16.13
2022-09-17T11:20:28.550Z,9.50
2022-09-17T11:24:38.027Z,15.20
2022-09-17T11:28:52.136Z,7.43
2022-09-17T11:32:53.713Z,7.90
2022-09-17T11:37:13.536Z,8.57
2022-09-17T11:41:22.886Z,9.35
2022-09-17T11:45:44.713Z,10.98
2022-09-17T11:49:57.670Z,11.38
2022-09-17T11:54:27.094Z,15.57
2022-09-17T11:58:48.276Z,9.48
2022-09-17T12:02:59.174Z,3.25
2022-09-17T12:07:11.010Z,6.68
2022-09-17T12:11:26.108Z,7.78
2022-09-17T12:15:32.991Z,9.65
2022-09-17T12:19:48.188Z,7.38
2022-09-17T12:23:59.239Z,8.25
2022-09-17T12:28:16.303Z,5.07
2022-09-17T12:32:33.599Z,9.38
2022-09-17T12:37:07.043Z,7.88
2022-09-17T12:41:40.427Z,6.47
2022-09-17T12:46:19.975Z,6.30
2022-09-17T12:50:41.593Z,5.90
2022-09-17T12:54:45.317Z,4.47
2022-09-17T12:59:02.565Z,7.30
2022-09-17T13:03:15.771Z,5.97
2022-09-17T13:08:10.395Z,8.40
2022-09-17T13:12:17.827Z,4.90
2022-09-17T13:16:33.636Z,5.07
2022-09-17T13:20:53.776Z,4.18
2022-09-17T13:25:07.691Z,5.45
2022-09-17T13:29:10.461Z,3.03
2022-09-17T13:33:13.511Z,5.13
2022-09-17T13:37:19.640Z,2.50
2022-09-17T13:41:24.231Z,3.00
2022-09-17T13:45:26.679Z,2.83
2022-09-17T13:49:31.996Z,4.47
2022-09-17T13:53:34.982Z,5.13
2022-09-17T14:02:13.966Z,5.53
2022-09-17T14:06:15.579Z,3.47
2022-09-17T14:10:17.041Z,3.85
2022-09-17T14:14:27.668Z,5.25
2022-09-17T14:18:29.196Z,2.53
2022-09-17T14:22:30.796Z,3.63
2022-09-17T14:26:41.641Z,10.27
2022-09-17T14:30:44.241Z,2.88
2022-09-17T14:34:45.774Z,2.28
2022-09-17T14:38:54.370Z,3.70
2022-09-17T14:43:01.325Z,6.72
2022-09-17T14:47:08.606Z,3.33
2022-09-17T14:51:25.479Z,1.90
2022-09-17T14:55:31.213Z,1.13
2022-09-17T14:59:41.891Z,2.80
2022-09-17T15:03:43.580Z,2.85
2022-09-17T15:07:46.377Z,1.75
2022-09-17T15:15:53.310Z,0.93
2022-09-17T15:19:58.575Z,1.65
2022-09-17T15:24:14.632Z,2.15
2022-09-17T15:28:35.186Z,0.75
2022-09-17T15:32:38.674Z,1.60
2022-09-17T15:36:40.379Z,3.25
2022-09-17T15:40:42.470Z,2.53
2022-09-17T15:44:44.055Z,2.13
2022-09-17T15:48:45.636Z,2.55
2022-09-17T15:52:47.672Z,2.45
2022-09-17T15:56:56.691Z,2.63
2022-09-17T16:01:16.558Z,1.85
2022-09-17T16:05:18.239Z,0.90
2022-09-17T16:09:56.717Z,1.75
2022-09-17T16:14:00.960Z,3.83
2022-09-17T16:18:02.501Z,3.88
2022-09-17T16:22:04.082Z,4.53
2022-09-17T16:26:09.840Z,2.22
2022-09-17T16:30:15.244Z,2.72
2022-09-17T16:34:16.858Z,6.28
2022-09-17T16:38:18.446Z,3.38
2022-09-17T16:42:20.213Z,3.15
2022-09-17T16:46:21.829Z,3.80
2022-09-17T16:50:24.018Z,5.35
2022-09-17T16:54:25.693Z,2.77
2022-09-17T16:58:27.437Z,5.93
2022-09-17T17:02:29.055Z,2.55
2022-09-17T17:06:30.718Z,3.53
2022-09-17T17:10:32.436Z,3.17
2022-09-17T17:14:34.149Z,1.45
2022-09-17T17:18:37.848Z,1.90
2022-09-17T17:22:41.109Z,3.40
2022-09-17T17:26:42.807Z,2.60
2022-09-17T17:30:47.578Z,2.58
2022-09-17T17:34:50.455Z,1.75
2022-09-17T17:38:56.979Z,1.52
2022-09-17T17:42:58.525Z,2.33
2022-09-17T17:47:00.178Z,3.50
2022-09-17T17:51:07.183Z,3.03
2022-09-17T17:55:09.048Z,2.05
2022-09-17T17:59:10.596Z,0.80
2022-09-17T18:03:12.229Z,1.27
2022-09-17T18:07:13.877Z,1.33
2022-09-17T18:11:15.571Z,1.92
2022-09-17T18:15:17.462Z,1.13
2022-09-17T18:19:19.032Z,2.95
2022-09-17T18:23:21.109Z,4.68
2022-09-17T18:27:22.724Z,2.03
2022-09-17T18:31:29.528Z,3.05
2022-09-17T18:35:35.316Z,1.73
2022-09-17T18:44:02.768Z,3.63
2022-09-17T18:48:06.325Z,1.80
2022-09-17T18:52:07.939Z,3.63
2022-09-17T18:56:19.503Z,2.92
2022-09-17T19:00:22.285Z,4.25
2022-09-17T19:04:23.797Z,3.78
2022-09-17T19:08:25.365Z,3.10
2022-09-17T19:12:26.999Z,5.75
2022-09-17T19:16:28.707Z,5.25
2022-09-17T19:20:35.710Z,9.30
2022-09-17T19:24:38.067Z,2.33
2022-09-17T19:28:39.800Z,7.03
2022-09-17T19:32:45.372Z,5.25
2022-09-17T19:36:46.959Z,2.88
2022-09-17T19:40:56.659Z,3.80
2022-09-17T19:44:58.360Z,6.32
2022-09-17T19:49:01.104Z,3.63
2022-09-17T19:53:02.837Z,4.57
2022-09-17T19:57:04.381Z,6.45
2022-09-17T20:01:06.059Z,6.90
2022-09-17T20:05:08.317Z,2.47
2022-09-17T20:09:11.868Z,4.87
2022-09-17T20:13:13.406Z,4.38
2022-09-17T20:17:14.975Z,7.57
2022-09-17T20:21:23.049Z,4.55
2022-09-17T20:25:25.783Z,5.07
2022-09-17T20:29:27.408Z,3.10
2022-09-17T20:33:29.436Z,7.20
2022-09-17T20:38:18.538Z,1.80
2022-09-17T20:41:52.794Z,4.15
2022-09-17T20:45:56.990Z,3.05
2022-09-17T20:49:58.645Z,6.40
2022-09-17T20:54:03.648Z,5.28
2022-09-17T20:58:06.783Z,7.78
2022-09-17T21:06:17.767Z,5.40
2022-09-17T21:10:19.340Z,5.85
2022-09-17T21:14:21.148Z,5.18
2022-09-17T21:18:22.807Z,6.47
2022-09-17T21:22:24.427Z,5.47
2022-09-17T21:26:25.971Z,6.28
2022-09-17T21:30:27.571Z,4.53
2022-09-17T21:34:30.831Z,6.50
2022-09-17T21:38:32.853Z,5.40
2022-09-17T21:42:35.783Z,4.00
2022-09-17T21:46:38.275Z,7.82
2022-09-17T21:50:39.877Z,5.13
2022-09-17T21:54:41.456Z,9.18
2022-09-17T21:58:44.812Z,7.13
2022-09-17T22:02:46.512Z,5.55
2022-09-17T22:06:49.668Z,4.20
2022-09-17T22:14:53.002Z,7.03
2022-09-17T22:18:54.583Z,10.25
2022-09-17T22:22:56.158Z,5.72
2022-09-17T22:26:58.586Z,10.05
2022-09-17T22:31:06.477Z,8.10
2022-09-17T22:35:08.790Z,5.93
2022-09-17T22:39:10.917Z,7.53
2022-09-17T22:43:12.550Z,6.90
2022-09-17T22:47:14.105Z,5.60
2022-09-17T22:51:16.159Z,5.18
2022-09-17T22:55:17.896Z,6.35
2022-09-17T22:59:19.685Z,4.88
2022-09-17T23:03:22.457Z,9.63
2022-09-17T23:07:24.009Z,14.68
2022-09-17T23:11:31.599Z,7.15
2022-09-17T23:15:33.201Z,5.97
2022-09-17T23:19:34.763Z,10.27
2022-09-17T23:23:37.359Z,8.13
2022-09-17T23:27:38.940Z,6.85
2022-09-17T23:31:41.152Z,4.88
2022-09-17T23:35:42.926Z,11.50
2022-09-17T23:39:44.439Z,10.30
2022-09-17T23:43:48.950Z,6.18
2022-09-17T23:47:50.469Z,6.68
2022-09-17T23:51:52.115Z,10.25
2022-09-17T23:55:53.703Z,6.78
2022-09-17T23:59:55.217Z,8.50
